Aviation Digital Data Service (ADDS)

Output produced by METARs form (0624 UTC 19 March 2019)
found at http://www.aviationweather.gov/metar/data/
 
Forecast for: VVDN (DA NANG INTL ARP, VN)
Text: TAF VVDN 190500Z 1906/2006 10008KT 8000 FEW015
Forecast period: 0600 to 2000 UTC 19 March 2019
Forecast type: FROM: standard forecast or significant change
Winds: from the E (100 degrees) at 9 MPH (8 knots; 4.1 m/s)
Visibility: 5 miles (8 km)
Ceiling: at least 12,000 feet AGL
Clouds: few clouds at 1500 feet AGL
Weather: no significant weather forecast for this period
Text: BECMG 1920/1922 4000 BR
Forecast period: 2000 UTC 19 March 2019 to 0000 UTC 20 March 2019
Forecast type: BECOMING: Conditions expected to become as follows by 2200 UTC 19 March 2019
Winds: from the E (100 degrees) at 9 MPH (8 knots; 4.1 m/s)
Visibility: 2.49 miles (4.01 km)
Ceiling: at least 12,000 feet AGL
Clouds: few clouds at 1500 feet AGL
Weather: BR  (mist)
Text: BECMG 2000/2001 6000 NSW
Forecast period: 0000 to 0600 UTC 20 March 2019
Forecast type: BECOMING: Conditions expected to become as follows by 0100 UTC 20 March 2019
Winds: from the E (100 degrees) at 9 MPH (8 knots; 4.1 m/s)
Visibility: 4 miles (6 km)
Ceiling: at least 12,000 feet AGL
Clouds: few clouds at 1500 feet AGL
Weather: NSW  (no significant weather)